createdAt,value
2018-09-22T00:01:34.149Z,2.97
2018-09-22T00:04:02.017Z,1.50
2018-09-22T00:06:29.627Z,2.67
2018-09-22T00:08:57.176Z,2.33
2018-09-22T00:11:24.646Z,2.00
2018-09-22T00:13:52.115Z,2.03
2018-09-22T00:16:20.160Z,2.37
2018-09-22T00:18:47.699Z,2.50
2018-09-22T00:21:15.164Z,3.20
2018-09-22T00:23:42.650Z,2.27
2018-09-22T00:26:10.088Z,2.30
2018-09-22T00:28:37.739Z,1.53
2018-09-22T00:31:05.370Z,1.63
2018-09-22T00:33:33.086Z,1.70
2018-09-22T00:36:00.652Z,1.90
2018-09-22T00:38:28.315Z,2.17
2018-09-22T00:40:55.866Z,2.60
2018-09-22T00:43:23.323Z,2.17
2018-09-22T00:45:50.908Z,2.20
2018-09-22T00:48:18.528Z,2.20
2018-09-22T00:50:46.132Z,1.80
2018-09-22T00:53:13.579Z,2.20
2018-09-22T00:55:41.122Z,2.07
2018-09-22T00:58:08.589Z,1.77
2018-09-22T01:00:36.147Z,1.83
2018-09-22T01:03:03.832Z,1.83
2018-09-22T01:05:31.600Z,2.00
2018-09-22T01:07:59.211Z,1.47
2018-09-22T01:10:26.873Z,2.00
2018-09-22T01:12:54.499Z,2.17
2018-09-22T01:15:22.005Z,1.60
2018-09-22T01:17:49.533Z,2.00
2018-09-22T01:20:17.036Z,1.50
2018-09-22T01:22:44.707Z,2.57
2018-09-22T01:25:12.334Z,1.17
2018-09-22T01:27:39.930Z,2.10
2018-09-22T01:30:07.990Z,2.10
2018-09-22T01:32:35.425Z,2.00
2018-09-22T01:35:02.903Z,2.83
2018-09-22T01:37:31.063Z,1.57
2018-09-22T01:39:58.495Z,1.57
2018-09-22T01:42:26.056Z,1.50
2018-09-22T01:44:53.582Z,1.60
2018-09-22T01:47:21.095Z,2.20
2018-09-22T01:49:48.748Z,2.00
2018-09-22T01:52:16.283Z,2.03
2018-09-22T01:54:43.811Z,1.70
2018-09-22T01:57:11.314Z,1.63
2018-09-22T01:59:38.879Z,1.77
2018-09-22T02:02:06.394Z,2.00
2018-09-22T02:04:33.903Z,2.07
2018-09-22T02:07:01.474Z,2.40
2018-09-22T02:09:28.993Z,2.17
2018-09-22T02:11:56.616Z,1.10
2018-09-22T02:14:24.410Z,2.10
2018-09-22T02:16:52.283Z,1.73
2018-09-22T02:19:19.906Z,2.80
2018-09-22T02:21:47.582Z,1.97
2018-09-22T02:24:15.127Z,2.20
2018-09-22T02:26:42.881Z,2.30
2018-09-22T02:29:10.531Z,1.80
2018-09-22T02:31:38.275Z,1.70
2018-09-22T02:34:06.033Z,1.50
2018-09-22T02:36:33.644Z,1.40
2018-09-22T02:39:01.460Z,1.80
2018-09-22T02:41:29.132Z,1.60
2018-09-22T02:43:56.824Z,1.60
2018-09-22T02:46:24.474Z,1.93
2018-09-22T02:48:52.363Z,1.67
2018-09-22T02:51:20.082Z,1.80
2018-09-22T02:53:47.927Z,1.50
2018-09-22T02:56:15.590Z,1.80
2018-09-22T02:58:43.210Z,1.50
2018-09-22T03:01:10.732Z,1.37
2018-09-22T03:03:38.552Z,1.67
2018-09-22T03:06:06.236Z,1.67
2018-09-22T03:08:33.726Z,1.47
2018-09-22T03:11:01.515Z,1.37
2018-09-22T03:13:29.212Z,1.13
2018-09-22T03:15:56.961Z,1.40
2018-09-22T03:18:24.538Z,1.43
2018-09-22T03:20:52.200Z,1.37
2018-09-22T03:23:20.291Z,1.87
2018-09-22T03:25:48.019Z,1.67
2018-09-22T03:28:15.551Z,1.83
2018-09-22T03:30:43.189Z,1.70
2018-09-22T03:33:11.128Z,1.43
2018-09-22T03:35:38.856Z,1.10
2018-09-22T03:38:07.437Z,1.93
2018-09-22T03:40:35.444Z,1.87
2018-09-22T03:43:03.187Z,1.40
2018-09-22T03:45:30.882Z,1.60
2018-09-22T03:47:58.536Z,1.57
2018-09-22T03:50:26.215Z,1.40
2018-09-22T03:52:53.929Z,1.77
2018-09-22T03:55:21.573Z,1.50
2018-09-22T03:57:49.214Z,1.73
2018-09-22T04:00:16.961Z,1.73
2018-09-22T04:02:44.664Z,1.30
2018-09-22T04:05:12.586Z,1.30
2018-09-22T04:07:40.175Z,1.47
2018-09-22T04:10:07.918Z,1.37
2018-09-22T04:12:35.549Z,2.27
2018-09-22T04:15:03.227Z,1.40
2018-09-22T04:17:31.183Z,1.27
2018-09-22T04:19:58.780Z,1.93
2018-09-22T04:22:26.474Z,1.10
2018-09-22T04:24:55.108Z,1.50
2018-09-22T04:27:22.775Z,1.90
2018-09-22T04:29:50.383Z,1.60
2018-09-22T04:32:17.923Z,1.50
2018-09-22T04:34:45.587Z,1.90
2018-09-22T04:37:13.167Z,1.70
2018-09-22T04:39:40.963Z,1.20
2018-09-22T04:42:08.557Z,1.23
2018-09-22T04:44:36.108Z,1.40
2018-09-22T04:47:03.855Z,1.40
2018-09-22T04:49:31.544Z,1.60
2018-09-22T04:51:59.176Z,1.50
2018-09-22T04:54:26.841Z,1.60
2018-09-22T04:56:55.002Z,1.40
2018-09-22T04:59:22.596Z,1.20
2018-09-22T05:01:50.170Z,1.80
2018-09-22T05:04:17.797Z,1.67
2018-09-22T05:06:45.505Z,1.60
2018-09-22T05:09:13.064Z,1.50
2018-09-22T05:11:40.897Z,2.10
2018-09-22T05:14:08.798Z,1.30
2018-09-22T05:16:37.037Z,1.70
2018-09-22T05:19:05.182Z,2.20
2018-09-22T05:21:32.881Z,1.40
2018-09-22T05:24:00.472Z,2.07
2018-09-22T05:26:28.401Z,1.63
2018-09-22T05:28:55.945Z,1.93
2018-09-22T05:31:23.559Z,1.60
2018-09-22T05:33:51.172Z,2.00
2018-09-22T05:36:18.911Z,1.77
2018-09-22T05:38:46.517Z,3.00
2018-09-22T05:41:14.206Z,2.00
2018-09-22T05:43:42.004Z,2.00
2018-09-22T05:46:09.610Z,2.03
2018-09-22T05:48:37.370Z,1.83
2018-09-22T05:51:05.422Z,1.60
2018-09-22T05:53:33.098Z,1.60
2018-09-22T05:56:00.767Z,1.60
2018-09-22T05:58:28.433Z,1.77
2018-09-22T06:00:56.187Z,1.70
2018-09-22T06:03:23.904Z,1.90
2018-09-22T06:05:51.678Z,1.70
2018-09-22T06:08:19.356Z,1.67
2018-09-22T06:10:46.920Z,1.83
2018-09-22T06:13:14.576Z,1.93
2018-09-22T06:15:42.287Z,1.53
2018-09-22T06:18:09.972Z,3.67
2018-09-22T06:20:37.611Z,2.00
2018-09-22T06:23:05.167Z,2.10
2018-09-22T06:25:32.600Z,1.57
2018-09-22T06:28:00.679Z,1.53
2018-09-22T06:30:28.101Z,2.00
2018-09-22T06:32:55.571Z,1.50
2018-09-22T06:35:23.004Z,1.90
2018-09-22T06:37:50.425Z,3.10
2018-09-22T06:40:17.907Z,1.60
2018-09-22T06:42:45.352Z,2.60
2018-09-22T06:45:12.811Z,1.67
2018-09-22T06:47:40.257Z,1.73
2018-09-22T06:50:07.829Z,2.53
2018-09-22T06:52:35.291Z,2.43
2018-09-22T06:55:02.849Z,1.90
2018-09-22T06:57:30.312Z,2.00
2018-09-22T06:59:57.749Z,1.53
2018-09-22T07:02:25.652Z,1.50
2018-09-22T07:04:53.080Z,3.10
2018-09-22T07:07:20.568Z,2.23
2018-09-22T07:09:48.132Z,1.60
2018-09-22T07:12:15.545Z,1.50
2018-09-22T07:14:42.981Z,1.70
2018-09-22T07:17:10.414Z,1.80
2018-09-22T07:19:37.880Z,1.40
2018-09-22T07:22:11.213Z,2.20
2018-09-22T07:24:38.663Z,2.20
2018-09-22T07:27:06.129Z,2.10
2018-09-22T07:29:33.591Z,1.80
2018-09-22T07:32:01.012Z,1.80
2018-09-22T07:34:28.481Z,2.20
2018-09-22T07:36:55.999Z,1.67
2018-09-22T07:39:23.494Z,1.70
2018-09-22T07:41:50.886Z,1.90
2018-09-22T07:44:18.306Z,1.60
2018-09-22T07:46:45.745Z,2.40
2018-09-22T07:49:13.158Z,2.37
2018-09-22T07:51:41.571Z,1.97
2018-09-22T07:54:09.003Z,2.17
2018-09-22T07:56:36.415Z,2.30
2018-09-22T07:59:04.031Z,2.67
2018-09-22T08:01:31.465Z,2.07
2018-09-22T08:03:58.928Z,2.73
2018-09-22T08:06:26.369Z,2.20
2018-09-22T08:08:53.787Z,2.17
2018-09-22T08:11:21.481Z,2.43
2018-09-22T08:13:48.915Z,2.93
2018-09-22T08:16:16.373Z,2.57
2018-09-22T08:18:43.783Z,2.03
2018-09-22T08:21:11.228Z,3.80
2018-09-22T08:23:38.645Z,2.27
2018-09-22T08:26:06.422Z,2.27
2018-09-22T08:28:33.880Z,2.43
2018-09-22T08:31:01.395Z,2.20
2018-09-22T08:33:28.867Z,2.03
2018-09-22T08:35:56.487Z,2.67
2018-09-22T08:38:24.040Z,2.77
2018-09-22T08:40:52.244Z,2.40
2018-09-22T08:43:19.758Z,3.10
2018-09-22T08:45:47.853Z,2.73
2018-09-22T08:48:15.280Z,2.93
2018-09-22T08:50:42.740Z,3.47
2018-09-22T08:53:10.325Z,2.87
2018-09-22T08:55:37.742Z,2.30
2018-09-22T08:58:05.202Z,2.57
2018-09-22T09:00:32.685Z,3.63
2018-09-22T09:03:00.176Z,2.90
2018-09-22T09:05:27.596Z,2.70
2018-09-22T09:07:55.118Z,3.23
2018-09-22T09:10:22.551Z,3.77
2018-09-22T09:12:50.002Z,3.13
2018-09-22T09:15:17.495Z,2.57
2018-09-22T09:17:44.939Z,3.17
2018-09-22T09:20:12.364Z,3.10
2018-09-22T09:22:39.785Z,2.57
2018-09-22T09:25:07.244Z,2.53
2018-09-22T09:27:34.696Z,2.73
2018-09-22T09:30:02.115Z,3.40
2018-09-22T09:32:29.546Z,3.37
2018-09-22T09:34:56.967Z,3.80
2018-09-22T09:37:24.475Z,2.17
2018-09-22T09:39:51.903Z,3.60
2018-09-22T09:42:19.396Z,2.77
2018-09-22T09:44:46.982Z,3.17
2018-09-22T09:47:14.449Z,2.77
2018-09-22T09:49:41.887Z,2.93
2018-09-22T09:52:09.351Z,3.17
2018-09-22T09:54:36.862Z,2.90
2018-09-22T09:57:04.312Z,2.40
2018-09-22T09:59:31.801Z,2.90
2018-09-22T10:01:59.275Z,2.40
2018-09-22T10:04:26.771Z,1.77
2018-09-22T10:06:54.455Z,1.63
2018-09-22T10:09:22.228Z,2.27
2018-09-22T10:11:49.677Z,2.60
2018-09-22T10:14:17.083Z,2.37
2018-09-22T10:16:44.755Z,2.13
2018-09-22T10:19:12.217Z,2.03
2018-09-22T10:21:39.652Z,2.10
2018-09-22T10:24:07.086Z,1.90
2018-09-22T10:26:34.539Z,1.83
2018-09-22T10:29:02.108Z,2.20
2018-09-22T10:31:29.568Z,2.10
2018-09-22T10:33:57.044Z,3.93
2018-09-22T10:36:24.467Z,2.97
2018-09-22T10:38:51.929Z,2.33
2018-09-22T10:41:19.391Z,1.67
2018-09-22T10:43:46.831Z,1.87
2018-09-22T10:46:14.273Z,2.33
2018-09-22T10:48:41.712Z,1.70
2018-09-22T10:51:09.167Z,2.43
2018-09-22T10:53:36.728Z,2.50
2018-09-22T10:56:04.983Z,2.27
2018-09-22T10:58:32.480Z,2.20
2018-09-22T11:01:00.568Z,1.67
2018-09-22T11:03:28.068Z,1.37
2018-09-22T11:05:55.583Z,1.40
2018-09-22T11:08:23.026Z,1.33
2018-09-22T11:10:50.501Z,1.70
2018-09-22T11:13:17.956Z,2.00
2018-09-22T11:15:45.435Z,2.07
2018-09-22T11:18:13.100Z,1.77
2018-09-22T11:20:40.539Z,1.90
2018-09-22T11:23:08.844Z,1.50
2018-09-22T11:25:36.291Z,1.93
2018-09-22T11:28:03.761Z,2.47
2018-09-22T11:30:31.289Z,2.10
2018-09-22T11:32:58.824Z,2.00
2018-09-22T11:35:26.280Z,1.90
2018-09-22T11:37:53.752Z,2.40
2018-09-22T11:40:21.244Z,1.83
2018-09-22T11:42:48.760Z,2.17
2018-09-22T11:45:16.431Z,2.70
2018-09-22T11:47:43.946Z,1.87
2018-09-22T11:50:11.498Z,1.30
2018-09-22T11:52:39.102Z,1.47
2018-09-22T11:55:06.767Z,1.47
2018-09-22T11:57:34.373Z,2.50
2018-09-22T12:00:01.941Z,1.90
2018-09-22T12:02:29.476Z,1.67
2018-09-22T12:04:57.152Z,1.03
2018-09-22T12:07:25.303Z,1.47
2018-09-22T12:09:53.939Z,1.30
2018-09-22T12:12:21.781Z,1.97
2018-09-22T12:14:49.743Z,1.77
2018-09-22T12:17:17.586Z,2.43
2018-09-22T12:19:46.100Z,1.47
2018-09-22T12:22:13.817Z,2.20
2018-09-22T12:24:41.495Z,3.97
2018-09-22T12:27:09.119Z,2.80
2018-09-22T12:29:37.108Z,3.27
2018-09-22T12:32:04.737Z,5.33
2018-09-22T12:34:32.483Z,1.67
2018-09-22T12:37:00.678Z,1.70
2018-09-22T12:39:28.259Z,1.70
2018-09-22T12:41:55.799Z,1.67
2018-09-22T12:44:23.345Z,2.20
2018-09-22T12:46:50.932Z,2.10
2018-09-22T12:49:18.556Z,1.83
2018-09-22T12:51:46.182Z,2.20
2018-09-22T12:54:13.825Z,2.53
2018-09-22T12:56:41.645Z,2.63
2018-09-22T12:59:09.695Z,2.57
2018-09-22T13:01:37.600Z,2.07
2018-09-22T13:04:05.268Z,1.70
2018-09-22T13:06:32.681Z,1.20
2018-09-22T13:09:00.161Z,1.60
2018-09-22T13:11:27.610Z,2.27
2018-09-22T13:13:55.042Z,2.40
2018-09-22T13:16:22.463Z,2.37
2018-09-22T13:18:49.917Z,1.53
2018-09-22T13:21:18.366Z,1.53
2018-09-22T13:23:45.989Z,2.00
2018-09-22T13:26:13.515Z,1.80
2018-09-22T13:28:41.080Z,1.50
2018-09-22T13:31:08.876Z,1.93
2018-09-22T13:33:36.953Z,1.20
2018-09-22T13:36:04.466Z,1.87
2018-09-22T13:38:31.970Z,1.20
2018-09-22T13:40:59.520Z,1.57
2018-09-22T13:43:27.002Z,1.90
2018-09-22T13:45:54.487Z,1.90
2018-09-22T13:48:21.984Z,2.70
2018-09-22T13:50:49.591Z,1.20
2018-09-22T13:53:17.357Z,1.40
2018-09-22T13:55:44.900Z,1.50
2018-09-22T13:58:12.622Z,2.00
2018-09-22T14:00:40.088Z,1.77
2018-09-22T14:03:07.627Z,2.03
2018-09-22T14:05:35.136Z,2.40
2018-09-22T14:08:02.828Z,1.80
2018-09-22T14:10:30.581Z,2.73
2018-09-22T14:12:58.131Z,1.87
2018-09-22T14:15:25.660Z,1.77
2018-09-22T14:17:53.207Z,2.47
2018-09-22T14:20:21.077Z,2.03
2018-09-22T14:22:48.840Z,2.50
2018-09-22T14:25:16.401Z,2.00
2018-09-22T14:27:44.097Z,2.87
2018-09-22T14:30:11.655Z,1.43
2018-09-22T14:32:40.210Z,2.37
2018-09-22T14:35:07.988Z,1.97
2018-09-22T14:37:35.701Z,2.77
2018-09-22T14:40:03.519Z,3.03
2018-09-22T14:42:31.153Z,3.20
2018-09-22T14:44:59.031Z,5.50
2018-09-22T14:47:26.611Z,5.20
2018-09-22T14:49:54.171Z,5.63
2018-09-22T14:52:22.859Z,3.83
2018-09-22T14:54:50.531Z,3.77
2018-09-22T14:57:18.060Z,3.13
2018-09-22T14:59:45.669Z,2.37
2018-09-22T15:02:13.261Z,2.63
2018-09-22T15:04:41.200Z,2.57
2018-09-22T15:07:08.942Z,2.30
2018-09-22T15:09:36.775Z,2.17
2018-09-22T15:12:04.399Z,2.30
2018-09-22T15:14:32.108Z,2.53
2018-09-22T15:16:59.823Z,2.07
2018-09-22T15:19:27.526Z,2.17
2018-09-22T15:21:55.329Z,2.80
2018-09-22T15:24:23.065Z,1.97
2018-09-22T15:26:50.749Z,2.70
2018-09-22T15:29:18.332Z,2.00
2018-09-22T15:31:46.050Z,1.73
2018-09-22T15:34:13.717Z,2.27
2018-09-22T15:36:41.319Z,1.57
2018-09-22T15:39:09.532Z,1.63
2018-09-22T15:41:37.357Z,1.93
2018-09-22T15:44:05.059Z,2.10
2018-09-22T15:46:32.754Z,2.90
2018-09-22T15:49:00.573Z,2.57
2018-09-22T15:51:28.170Z,2.70
2018-09-22T15:53:55.759Z,4.77
2018-09-22T15:56:23.303Z,2.33
2018-09-22T15:58:50.933Z,2.97
2018-09-22T16:01:18.615Z,2.53
2018-09-22T16:03:46.296Z,4.47
2018-09-22T16:06:14.143Z,2.80
2018-09-22T16:08:42.048Z,2.90
2018-09-22T16:11:09.925Z,3.07
2018-09-22T16:13:37.738Z,2.90
2018-09-22T16:16:05.539Z,3.30
2018-09-22T16:18:33.267Z,1.93
2018-09-22T16:21:00.841Z,2.20
2018-09-22T16:23:28.455Z,2.27
2018-09-22T16:25:56.095Z,2.27
2018-09-22T16:28:23.859Z,1.83
2018-09-22T16:30:51.526Z,1.90
2018-09-22T16:33:19.295Z,2.23
2018-09-22T16:35:47.182Z,1.53
2018-09-22T16:38:14.778Z,3.33
2018-09-22T16:40:42.593Z,2.33
2018-09-22T16:43:10.460Z,12.27
2018-09-22T16:45:38.116Z,13.20
2018-09-22T16:48:05.888Z,15.17
2018-09-22T16:50:33.736Z,12.43
2018-09-22T16:53:01.602Z,6.53
2018-09-22T16:55:29.403Z,6.87
2018-09-22T16:57:57.297Z,3.20
2018-09-22T17:00:24.924Z,3.70
2018-09-22T17:02:52.629Z,5.97
2018-09-22T17:05:20.297Z,5.73
2018-09-22T17:07:47.944Z,3.87
2018-09-22T17:10:15.709Z,3.77
2018-09-22T17:12:43.427Z,4.97
2018-09-22T17:15:11.318Z,3.17
2018-09-22T17:17:39.111Z,3.70
2018-09-22T17:20:06.881Z,3.13
2018-09-22T17:22:34.820Z,3.27
2018-09-22T17:25:02.792Z,2.83
2018-09-22T17:27:30.886Z,2.70
2018-09-22T17:29:58.606Z,3.80
2018-09-22T17:32:26.424Z,3.30
2018-09-22T17:34:54.673Z,5.80
2018-09-22T17:37:22.626Z,2.90
2018-09-22T17:39:50.575Z,3.37
2018-09-22T17:42:18.415Z,3.60
2018-09-22T17:44:46.168Z,3.33
2018-09-22T17:47:14.142Z,3.50
2018-09-22T17:49:42.169Z,3.33
2018-09-22T17:52:10.046Z,2.73
2018-09-22T17:54:38.091Z,3.13
2018-09-22T17:57:06.181Z,3.33
2018-09-22T17:59:34.124Z,3.13
2018-09-22T18:02:02.145Z,4.40
2018-09-22T18:04:30.014Z,7.17
2018-09-22T18:06:58.258Z,5.37
2018-09-22T18:09:26.471Z,5.07
2018-09-22T18:11:54.551Z,3.13
2018-09-22T18:14:22.520Z,4.37
2018-09-22T18:16:50.425Z,4.33
2018-09-22T18:19:18.115Z,5.73
2018-09-22T18:21:46.087Z,8.60
2018-09-22T18:24:14.011Z,5.17
2018-09-22T18:26:42.291Z,4.57
2018-09-22T18:29:10.198Z,6.70
2018-09-22T18:31:38.034Z,5.67
2018-09-22T18:34:09.374Z,5.53
2018-09-22T18:36:37.328Z,4.27
2018-09-22T18:39:06.181Z,3.83
2018-09-22T18:41:33.933Z,5.57
2018-09-22T18:44:02.025Z,5.57
2018-09-22T18:46:29.962Z,4.87
2018-09-22T18:48:57.945Z,5.47
2018-09-22T18:51:26.111Z,7.03
2018-09-22T18:54:04.127Z,7.67
2018-09-22T18:56:33.356Z,6.33
2018-09-22T19:14:27.096Z,4.10
2018-09-22T19:17:14.107Z,4.40
2018-09-22T19:19:49.520Z,3.20
2018-09-22T19:22:21.240Z,3.60
2018-09-22T19:24:53.775Z,4.57
2018-09-22T19:27:29.923Z,5.43
2018-09-22T19:30:07.071Z,5.40
2018-09-22T19:32:44.212Z,4.27
2018-09-22T19:35:19.188Z,3.87
2018-09-22T19:37:50.328Z,3.90
2018-09-22T19:40:27.002Z,4.97
2018-09-22T19:43:03.165Z,5.30
2018-09-22T19:45:35.308Z,5.17
2018-09-22T19:49:10.455Z,6.03
2018-09-22T19:51:45.582Z,6.00
2018-09-22T19:54:13.823Z,5.90
2018-09-22T19:56:41.913Z,6.20
2018-09-22T19:59:09.846Z,6.90
2018-09-22T20:01:37.685Z,5.03
2018-09-22T20:04:14.242Z,4.33
2018-09-22T20:06:42.073Z,4.30
2018-09-22T20:09:09.910Z,4.70
2018-09-22T20:11:37.859Z,4.77
2018-09-22T20:14:05.738Z,5.00
2018-09-22T20:16:34.223Z,5.40
2018-09-22T20:19:02.581Z,5.77
2018-09-22T20:21:30.718Z,5.80
2018-09-22T20:23:58.665Z,6.53
2018-09-22T20:26:26.504Z,7.30
2018-09-22T20:28:54.477Z,7.87
2018-09-22T20:31:22.962Z,7.30
2018-09-22T20:33:51.073Z,7.27
2018-09-22T20:36:19.295Z,7.50
2018-09-22T20:38:47.899Z,7.53
2018-09-22T20:41:15.884Z,6.90
2018-09-22T20:43:44.704Z,6.43
2018-09-22T20:46:12.675Z,5.80
2018-09-22T20:48:40.829Z,6.07
2018-09-22T20:51:08.799Z,5.13
2018-09-22T20:53:36.880Z,4.67
2018-09-22T20:56:04.837Z,4.83
2018-09-22T20:58:32.956Z,5.40
2018-09-22T21:01:02.134Z,5.10
2018-09-22T21:03:29.926Z,5.60
2018-09-22T21:05:58.106Z,5.73
2018-09-22T21:08:29.221Z,7.30
2018-09-22T21:10:57.189Z,6.93
2018-09-22T21:13:25.407Z,7.93
2018-09-22T21:15:53.731Z,7.83
2018-09-22T21:18:21.900Z,8.97
2018-09-22T21:20:50.068Z,8.43
2018-09-22T21:23:17.814Z,8.13
2018-09-22T21:25:46.195Z,8.50
2018-09-22T21:28:14.145Z,8.90
2018-09-22T21:30:41.967Z,9.30
2018-09-22T21:33:09.708Z,9.13
2018-09-22T21:35:37.989Z,8.87
2018-09-22T21:38:06.391Z,9.20
2018-09-22T21:40:42.816Z,9.80
2018-09-22T21:43:10.534Z,9.10
2018-09-22T21:45:38.723Z,10.00
2018-09-22T21:48:06.558Z,10.23
2018-09-22T21:50:34.161Z,7.97
2018-09-22T21:53:02.488Z,8.80
2018-09-22T21:55:30.268Z,8.60
2018-09-22T21:57:58.134Z,8.33
2018-09-22T22:00:25.792Z,8.23
2018-09-22T22:02:53.844Z,7.50
2018-09-22T22:05:21.762Z,8.13
2018-09-22T22:07:51.757Z,7.50
2018-09-22T22:10:19.720Z,6.33
2018-09-22T22:12:47.572Z,6.20
2018-09-22T22:15:15.373Z,7.03
2018-09-22T22:17:43.931Z,6.90
2018-09-22T22:20:12.165Z,7.13
2018-09-22T22:22:40.332Z,7.83
2018-09-22T22:25:08.624Z,7.97
2018-09-22T22:27:43.557Z,7.70
2018-09-22T22:30:14.157Z,8.80
2018-09-22T22:32:43.722Z,7.00
2018-09-22T22:35:12.079Z,7.77
2018-09-22T22:37:41.763Z,8.53
2018-09-22T22:40:09.681Z,8.00
2018-09-22T22:42:37.216Z,8.40
2018-09-22T22:45:05.014Z,8.50
2018-09-22T22:47:32.794Z,8.30
2018-09-22T22:50:02.136Z,8.07
2018-09-22T22:56:54.175Z,8.77
2018-09-22T22:59:26.836Z,10.77
2018-09-22T23:02:05.724Z,11.17
2018-09-22T23:04:34.526Z,11.40
2018-09-22T23:07:07.597Z,13.57
2018-09-22T23:12:08.601Z,14.53
2018-09-22T23:25:07.835Z,15.40
2018-09-22T23:27:36.093Z,14.97
2018-09-22T23:30:04.867Z,14.50
2018-09-22T23:32:32.932Z,14.13
2018-09-22T23:35:00.687Z,14.87
2018-09-22T23:37:28.890Z,14.30
2018-09-22T23:39:57.074Z,14.50
2018-09-22T23:42:25.250Z,13.53
2018-09-22T23:44:54.131Z,13.70
2018-09-22T23:47:21.938Z,14.77
2018-09-22T23:49:50.296Z,15.47
2018-09-22T23:52:18.365Z,16.20
2018-09-22T23:54:46.346Z,16.17
2018-09-22T23:57:14.389Z,15.53
2018-09-22T23:59:47.438Z,17.20
